sensor_id;sensor_type;location;lat;lon;timestamp;P1;durP1;ratioP1;P2;durP2;ratioP2
1344;SDS011;15375;48.540;9.268;2022-07-05T00:00:49;4.60;;;4.30;;
1344;SDS011;15375;48.540;9.268;2022-07-05T00:03:14;3.80;;;3.50;;
1344;SDS011;15375;48.540;9.268;2022-07-05T00:05:39;3.57;;;3.37;;
1344;SDS011;15375;48.540;9.268;2022-07-05T00:08:05;5.40;;;5.00;;
1344;SDS011;15375;48.540;9.268;2022-07-05T00:10:35;3.80;;;3.50;;
1344;SDS011;15375;48.540;9.268;2022-07-05T00:13:01;3.40;;;3.20;;
1344;SDS011;15375;48.540;9.268;2022-07-05T00:15:28;4.63;;;4.23;;
1344;SDS011;15375;48.540;9.268;2022-07-05T00:17:53;4.80;;;3.37;;
1344;SDS011;15375;48.540;9.268;2022-07-05T00:20:19;4.10;;;3.80;;
1344;SDS011;15375;48.540;9.268;2022-07-05T00:22:44;3.50;;;3.30;;
1344;SDS011;15375;48.540;9.268;2022-07-05T00:25:09;4.07;;;3.77;;
1344;SDS011;15375;48.540;9.268;2022-07-05T00:27:35;3.80;;;3.30;;
1344;SDS011;15375;48.540;9.268;2022-07-05T00:30:00;3.60;;;3.30;;
1344;SDS011;15375;48.540;9.268;2022-07-05T00:32:26;4.40;;;3.57;;
1344;SDS011;15375;48.540;9.268;2022-07-05T00:34:51;3.80;;;3.60;;
1344;SDS011;15375;48.540;9.268;2022-07-05T00:37:17;4.27;;;3.40;;
1344;SDS011;15375;48.540;9.268;2022-07-05T00:39:42;3.90;;;3.60;;
1344;SDS011;15375;48.540;9.268;2022-07-05T00:42:08;3.70;;;3.50;;
1344;SDS011;15375;48.540;9.268;2022-07-05T00:44:34;3.90;;;3.60;;
1344;SDS011;15375;48.540;9.268;2022-07-05T00:47:02;4.07;;;3.63;;
1344;SDS011;15375;48.540;9.268;2022-07-05T00:49:29;3.70;;;3.50;;
1344;SDS011;15375;48.540;9.268;2022-07-05T00:51:55;4.00;;;3.80;;
1344;SDS011;15375;48.540;9.268;2022-07-05T00:54:20;4.63;;;4.23;;
1344;SDS011;15375;48.540;9.268;2022-07-05T00:56:46;6.10;;;3.43;;
1344;SDS011;15375;48.540;9.268;2022-07-05T00:59:12;5.10;;;3.67;;
1344;SDS011;15375;48.540;9.268;2022-07-05T01:01:37;3.77;;;3.57;;
1344;SDS011;15375;48.540;9.268;2022-07-05T01:04:03;4.30;;;4.00;;
1344;SDS011;15375;48.540;9.268;2022-07-05T01:06:29;3.77;;;3.57;;
1344;SDS011;15375;48.540;9.268;2022-07-05T01:08:54;3.90;;;3.60;;
1344;SDS011;15375;48.540;9.268;2022-07-05T01:11:19;4.13;;;3.80;;
1344;SDS011;15375;48.540;9.268;2022-07-05T01:13:45;3.73;;;3.17;;
1344;SDS011;15375;48.540;9.268;2022-07-05T01:16:11;5.07;;;4.00;;
1344;SDS011;15375;48.540;9.268;2022-07-05T01:18:38;4.73;;;3.60;;
1344;SDS011;15375;48.540;9.268;2022-07-05T01:21:03;4.13;;;3.73;;
1344;SDS011;15375;48.540;9.268;2022-07-05T01:23:30;8.00;;;3.80;;
1344;SDS011;15375;48.540;9.268;2022-07-05T01:25:58;4.70;;;4.33;;
1344;SDS011;15375;48.540;9.268;2022-07-05T01:28:25;4.47;;;4.13;;
1344;SDS011;15375;48.540;9.268;2022-07-05T01:30:50;5.20;;;4.10;;
1344;SDS011;15375;48.540;9.268;2022-07-05T01:33:16;7.27;;;4.30;;
1344;SDS011;15375;48.540;9.268;2022-07-05T01:35:41;6.83;;;4.13;;
1344;SDS011;15375;48.540;9.268;2022-07-05T01:38:07;4.33;;;4.03;;
1344;SDS011;15375;48.540;9.268;2022-07-05T01:40:36;5.53;;;5.13;;
1344;SDS011;15375;48.540;9.268;2022-07-05T01:43:02;3.97;;;3.53;;
1344;SDS011;15375;48.540;9.268;2022-07-05T01:45:27;4.43;;;4.10;;
1344;SDS011;15375;48.540;9.268;2022-07-05T01:48:18;5.20;;;3.83;;
1344;SDS011;15375;48.540;9.268;2022-07-05T01:50:45;6.00;;;4.33;;
1344;SDS011;15375;48.540;9.268;2022-07-05T01:53:20;4.57;;;4.10;;
1344;SDS011;15375;48.540;9.268;2022-07-05T01:55:48;6.90;;;4.40;;
1344;SDS011;15375;48.540;9.268;2022-07-05T01:58:13;4.87;;;4.43;;
1344;SDS011;15375;48.540;9.268;2022-07-05T02:00:45;5.00;;;4.03;;
1344;SDS011;15375;48.540;9.268;2022-07-05T02:03:12;4.03;;;3.73;;
1344;SDS011;15375;48.540;9.268;2022-07-05T02:05:38;7.47;;;3.97;;
1344;SDS011;15375;48.540;9.268;2022-07-05T02:08:05;5.07;;;4.43;;
1344;SDS011;15375;48.540;9.268;2022-07-05T02:10:31;4.00;;;3.80;;
1344;SDS011;15375;48.540;9.268;2022-07-05T02:12:56;5.60;;;4.10;;
1344;SDS011;15375;48.540;9.268;2022-07-05T02:15:21;4.40;;;3.97;;
1344;SDS011;15375;48.540;9.268;2022-07-05T02:17:47;4.23;;;3.83;;
1344;SDS011;15375;48.540;9.268;2022-07-05T02:20:12;5.90;;;5.50;;
1344;SDS011;15375;48.540;9.268;2022-07-05T02:22:37;4.07;;;3.77;;
1344;SDS011;15375;48.540;9.268;2022-07-05T02:25:03;4.80;;;3.60;;
1344;SDS011;15375;48.540;9.268;2022-07-05T02:27:29;4.63;;;3.83;;
1344;SDS011;15375;48.540;9.268;2022-07-05T02:29:54;7.50;;;4.33;;
1344;SDS011;15375;48.540;9.268;2022-07-05T02:32:19;4.40;;;4.00;;
1344;SDS011;15375;48.540;9.268;2022-07-05T02:34:45;5.00;;;4.60;;
1344;SDS011;15375;48.540;9.268;2022-07-05T02:37:10;4.00;;;3.80;;
1344;SDS011;15375;48.540;9.268;2022-07-05T02:39:36;4.30;;;4.00;;
1344;SDS011;15375;48.540;9.268;2022-07-05T02:42:01;3.90;;;3.47;;
1344;SDS011;15375;48.540;9.268;2022-07-05T02:44:27;6.33;;;4.40;;
1344;SDS011;15375;48.540;9.268;2022-07-05T02:46:52;6.83;;;4.13;;
1344;SDS011;15375;48.540;9.268;2022-07-05T02:49:17;4.03;;;3.70;;
1344;SDS011;15375;48.540;9.268;2022-07-05T02:51:43;4.33;;;4.00;;
1344;SDS011;15375;48.540;9.268;2022-07-05T02:54:08;9.30;;;5.00;;
1344;SDS011;15375;48.540;9.268;2022-07-05T02:56:33;4.80;;;4.40;;
1344;SDS011;15375;48.540;9.268;2022-07-05T02:58:59;5.23;;;4.20;;
1344;SDS011;15375;48.540;9.268;2022-07-05T03:01:24;4.17;;;3.90;;
1344;SDS011;15375;48.540;9.268;2022-07-05T03:03:50;3.93;;;3.63;;
1344;SDS011;15375;48.540;9.268;2022-07-05T03:06:15;4.63;;;4.33;;
1344;SDS011;15375;48.540;9.268;2022-07-05T03:08:41;4.10;;;3.60;;
1344;SDS011;15375;48.540;9.268;2022-07-05T03:11:06;4.03;;;3.73;;
1344;SDS011;15375;48.540;9.268;2022-07-05T03:13:31;6.70;;;4.03;;
1344;SDS011;15375;48.540;9.268;2022-07-05T03:15:57;4.73;;;4.23;;
1344;SDS011;15375;48.540;9.268;2022-07-05T03:18:22;3.53;;;3.20;;
1344;SDS011;15375;48.540;9.268;2022-07-05T03:20:48;5.23;;;4.70;;
1344;SDS011;15375;48.540;9.268;2022-07-05T03:23:13;4.77;;;3.63;;
1344;SDS011;15375;48.540;9.268;2022-07-05T03:25:38;4.47;;;4.17;;
1344;SDS011;15375;48.540;9.268;2022-07-05T03:28:04;6.53;;;4.00;;
1344;SDS011;15375;48.540;9.268;2022-07-05T03:30:29;4.37;;;3.80;;
1344;SDS011;15375;48.540;9.268;2022-07-05T03:32:55;4.20;;;3.80;;
1344;SDS011;15375;48.540;9.268;2022-07-05T03:35:20;4.80;;;4.33;;
1344;SDS011;15375;48.540;9.268;2022-07-05T03:37:45;4.07;;;3.80;;
1344;SDS011;15375;48.540;9.268;2022-07-05T03:40:11;7.67;;;4.13;;
1344;SDS011;15375;48.540;9.268;2022-07-05T03:42:36;7.30;;;4.23;;
1344;SDS011;15375;48.540;9.268;2022-07-05T03:45:02;6.30;;;3.87;;
1344;SDS011;15375;48.540;9.268;2022-07-05T03:47:28;4.10;;;3.70;;
1344;SDS011;15375;48.540;9.268;2022-07-05T03:49:53;4.90;;;4.50;;
1344;SDS011;15375;48.540;9.268;2022-07-05T03:52:19;5.07;;;4.33;;
1344;SDS011;15375;48.540;9.268;2022-07-05T03:54:44;6.93;;;4.80;;
1344;SDS011;15375;48.540;9.268;2022-07-05T03:57:10;4.40;;;3.97;;
1344;SDS011;15375;48.540;9.268;2022-07-05T03:59:36;4.43;;;3.60;;
1344;SDS011;15375;48.540;9.268;2022-07-05T04:02:02;4.37;;;3.83;;
1344;SDS011;15375;48.540;9.268;2022-07-05T04:04:27;5.33;;;3.87;;
1344;SDS011;15375;48.540;9.268;2022-07-05T04:06:53;7.80;;;4.23;;
1344;SDS011;15375;48.540;9.268;2022-07-05T04:09:18;4.13;;;3.83;;
1344;SDS011;15375;48.540;9.268;2022-07-05T04:11:43;5.27;;;4.77;;
1344;SDS011;15375;48.540;9.268;2022-07-05T04:14:09;6.80;;;4.40;;
1344;SDS011;15375;48.540;9.268;2022-07-05T04:16:34;4.90;;;4.50;;
1344;SDS011;15375;48.540;9.268;2022-07-05T04:19:00;5.60;;;4.67;;
1344;SDS011;15375;48.540;9.268;2022-07-05T04:21:25;4.07;;;3.67;;
1344;SDS011;15375;48.540;9.268;2022-07-05T04:23:50;4.80;;;4.40;;
1344;SDS011;15375;48.540;9.268;2022-07-05T04:26:16;5.17;;;4.67;;
1344;SDS011;15375;48.540;9.268;2022-07-05T04:28:42;5.67;;;4.53;;
1344;SDS011;15375;48.540;9.268;2022-07-05T04:31:08;3.33;;;3.13;;
1344;SDS011;15375;48.540;9.268;2022-07-05T04:33:33;5.10;;;4.50;;
1344;SDS011;15375;48.540;9.268;2022-07-05T04:35:59;4.00;;;3.70;;
1344;SDS011;15375;48.540;9.268;2022-07-05T04:38:24;4.93;;;4.53;;
1344;SDS011;15375;48.540;9.268;2022-07-05T04:40:49;8.57;;;3.83;;
1344;SDS011;15375;48.540;9.268;2022-07-05T04:43:15;4.30;;;4.00;;
1344;SDS011;15375;48.540;9.268;2022-07-05T04:45:40;4.23;;;3.93;;
1344;SDS011;15375;48.540;9.268;2022-07-05T04:48:06;6.90;;;4.83;;
1344;SDS011;15375;48.540;9.268;2022-07-05T04:50:31;6.57;;;5.77;;
1344;SDS011;15375;48.540;9.268;2022-07-05T04:52:57;6.93;;;4.97;;
1344;SDS011;15375;48.540;9.268;2022-07-05T04:55:22;6.40;;;6.00;;
1344;SDS011;15375;48.540;9.268;2022-07-05T04:57:48;5.93;;;5.43;;
1344;SDS011;15375;48.540;9.268;2022-07-05T05:00:13;5.60;;;5.20;;
1344;SDS011;15375;48.540;9.268;2022-07-05T05:02:39;6.40;;;5.00;;
1344;SDS011;15375;48.540;9.268;2022-07-05T05:05:05;6.57;;;5.87;;
1344;SDS011;15375;48.540;9.268;2022-07-05T05:07:31;6.13;;;5.63;;
1344;SDS011;15375;48.540;9.268;2022-07-05T05:09:58;5.60;;;5.10;;
1344;SDS011;15375;48.540;9.268;2022-07-05T05:12:23;5.33;;;4.83;;
1344;SDS011;15375;48.540;9.268;2022-07-05T05:14:49;8.07;;;4.90;;
1344;SDS011;15375;48.540;9.268;2022-07-05T05:17:15;5.03;;;4.53;;
1344;SDS011;15375;48.540;9.268;2022-07-05T05:19:40;5.83;;;5.30;;
1344;SDS011;15375;48.540;9.268;2022-07-05T05:22:05;4.90;;;4.50;;
1344;SDS011;15375;48.540;9.268;2022-07-05T05:24:31;6.20;;;4.63;;
1344;SDS011;15375;48.540;9.268;2022-07-05T05:26:59;3.93;;;3.53;;
1344;SDS011;15375;48.540;9.268;2022-07-05T05:29:25;7.63;;;4.20;;
1344;SDS011;15375;48.540;9.268;2022-07-05T05:31:50;4.77;;;4.43;;
1344;SDS011;15375;48.540;9.268;2022-07-05T05:34:16;3.90;;;3.60;;
1344;SDS011;15375;48.540;9.268;2022-07-05T05:36:41;7.13;;;3.47;;
1344;SDS011;15375;48.540;9.268;2022-07-05T05:39:06;6.53;;;4.30;;
1344;SDS011;15375;48.540;9.268;2022-07-05T05:41:32;5.23;;;3.27;;
1344;SDS011;15375;48.540;9.268;2022-07-05T05:43:57;4.83;;;3.70;;
1344;SDS011;15375;48.540;9.268;2022-07-05T05:46:22;4.60;;;3.57;;
1344;SDS011;15375;48.540;9.268;2022-07-05T05:48:48;3.87;;;3.57;;
1344;SDS011;15375;48.540;9.268;2022-07-05T05:51:13;4.53;;;4.13;;
1344;SDS011;15375;48.540;9.268;2022-07-05T05:53:38;3.50;;;3.20;;
1344;SDS011;15375;48.540;9.268;2022-07-05T05:56:04;4.40;;;4.00;;
1344;SDS011;15375;48.540;9.268;2022-07-05T05:58:29;4.53;;;4.13;;
1344;SDS011;15375;48.540;9.268;2022-07-05T06:00:55;4.40;;;4.10;;
1344;SDS011;15375;48.540;9.268;2022-07-05T06:03:24;4.53;;;4.17;;
1344;SDS011;15375;48.540;9.268;2022-07-05T06:05:51;5.60;;;5.00;;
1344;SDS011;15375;48.540;9.268;2022-07-05T06:08:17;5.60;;;4.70;;
1344;SDS011;15375;48.540;9.268;2022-07-05T06:10:42;3.73;;;3.43;;
1344;SDS011;15375;48.540;9.268;2022-07-05T06:13:11;4.73;;;4.10;;
1344;SDS011;15375;48.540;9.268;2022-07-05T06:15:37;5.40;;;3.60;;
1344;SDS011;15375;48.540;9.268;2022-07-05T06:18:03;4.47;;;3.47;;
1344;SDS011;15375;48.540;9.268;2022-07-05T06:20:31;3.23;;;3.03;;
1344;SDS011;15375;48.540;9.268;2022-07-05T06:22:58;4.23;;;3.80;;
1344;SDS011;15375;48.540;9.268;2022-07-05T06:25:24;3.90;;;3.60;;
1344;SDS011;15375;48.540;9.268;2022-07-05T06:27:54;4.60;;;3.50;;
1344;SDS011;15375;48.540;9.268;2022-07-05T06:30:22;5.20;;;3.90;;
1344;SDS011;15375;48.540;9.268;2022-07-05T06:32:49;4.40;;;3.87;;
1344;SDS011;15375;48.540;9.268;2022-07-05T06:35:15;4.00;;;3.67;;
1344;SDS011;15375;48.540;9.268;2022-07-05T06:37:48;3.73;;;3.30;;
1344;SDS011;15375;48.540;9.268;2022-07-05T06:40:23;11.63;;;5.40;;
1344;SDS011;15375;48.540;9.268;2022-07-05T06:42:50;6.70;;;4.00;;
1344;SDS011;15375;48.540;9.268;2022-07-05T06:45:17;3.90;;;3.60;;
1344;SDS011;15375;48.540;9.268;2022-07-05T06:47:43;3.97;;;3.67;;
1344;SDS011;15375;48.540;9.268;2022-07-05T06:50:08;4.00;;;3.57;;
1344;SDS011;15375;48.540;9.268;2022-07-05T06:52:35;4.23;;;3.93;;
1344;SDS011;15375;48.540;9.268;2022-07-05T06:55:01;3.53;;;3.23;;
1344;SDS011;15375;48.540;9.268;2022-07-05T06:57:27;3.93;;;3.37;;
1344;SDS011;15375;48.540;9.268;2022-07-05T06:59:53;3.53;;;3.20;;
1344;SDS011;15375;48.540;9.268;2022-07-05T07:02:18;4.80;;;3.80;;
1344;SDS011;15375;48.540;9.268;2022-07-05T07:04:44;5.10;;;3.70;;
1344;SDS011;15375;48.540;9.268;2022-07-05T07:07:10;5.53;;;3.10;;
1344;SDS011;15375;48.540;9.268;2022-07-05T07:09:58;3.83;;;3.53;;
1344;SDS011;15375;48.540;9.268;2022-07-05T07:12:24;5.80;;;3.23;;
1344;SDS011;15375;48.540;9.268;2022-07-05T07:14:50;3.67;;;3.37;;
1344;SDS011;15375;48.540;9.268;2022-07-05T07:17:15;4.37;;;3.30;;
1344;SDS011;15375;48.540;9.268;2022-07-05T07:19:41;4.20;;;3.20;;
1344;SDS011;15375;48.540;9.268;2022-07-05T07:22:06;3.40;;;3.00;;
1344;SDS011;15375;48.540;9.268;2022-07-05T07:24:32;5.30;;;2.90;;
1344;SDS011;15375;48.540;9.268;2022-07-05T07:26:57;3.77;;;3.43;;
1344;SDS011;15375;48.540;9.268;2022-07-05T07:29:28;2.97;;;2.77;;
1344;SDS011;15375;48.540;9.268;2022-07-05T07:31:55;2.93;;;2.63;;
1344;SDS011;15375;48.540;9.268;2022-07-05T07:34:21;3.20;;;2.80;;
1344;SDS011;15375;48.540;9.268;2022-07-05T07:36:47;3.27;;;3.03;;
1344;SDS011;15375;48.540;9.268;2022-07-05T07:39:13;5.00;;;3.23;;
1344;SDS011;15375;48.540;9.268;2022-07-05T07:41:39;2.73;;;2.50;;
1344;SDS011;15375;48.540;9.268;2022-07-05T07:44:04;3.13;;;2.90;;
1344;SDS011;15375;48.540;9.268;2022-07-05T07:46:29;3.50;;;3.20;;
1344;SDS011;15375;48.540;9.268;2022-07-05T07:48:55;3.03;;;2.70;;
1344;SDS011;15375;48.540;9.268;2022-07-05T07:51:20;4.67;;;2.47;;
1344;SDS011;15375;48.540;9.268;2022-07-05T07:53:46;2.50;;;2.30;;
1344;SDS011;15375;48.540;9.268;2022-07-05T07:56:12;3.33;;;2.80;;
1344;SDS011;15375;48.540;9.268;2022-07-05T07:58:37;10.33;;;3.00;;
1344;SDS011;15375;48.540;9.268;2022-07-05T08:01:03;3.43;;;2.83;;
1344;SDS011;15375;48.540;9.268;2022-07-05T08:03:30;3.07;;;2.47;;
1344;SDS011;15375;48.540;9.268;2022-07-05T08:05:57;2.53;;;2.33;;
1344;SDS011;15375;48.540;9.268;2022-07-05T08:08:22;2.93;;;2.73;;
1344;SDS011;15375;48.540;9.268;2022-07-05T08:10:48;2.70;;;2.40;;
1344;SDS011;15375;48.540;9.268;2022-07-05T08:13:13;2.40;;;2.20;;
1344;SDS011;15375;48.540;9.268;2022-07-05T08:15:38;4.90;;;2.17;;
1344;SDS011;15375;48.540;9.268;2022-07-05T08:18:04;2.80;;;2.53;;
1344;SDS011;15375;48.540;9.268;2022-07-05T08:20:48;2.70;;;2.50;;
1344;SDS011;15375;48.540;9.268;2022-07-05T08:23:32;2.83;;;2.63;;
1344;SDS011;15375;48.540;9.268;2022-07-05T08:25:57;4.20;;;3.17;;
1344;SDS011;15375;48.540;9.268;2022-07-05T08:28:22;2.57;;;2.43;;
1344;SDS011;15375;48.540;9.268;2022-07-05T08:30:49;3.50;;;2.57;;
1344;SDS011;15375;48.540;9.268;2022-07-05T08:33:14;2.63;;;2.43;;
1344;SDS011;15375;48.540;9.268;2022-07-05T08:35:39;3.70;;;2.53;;
1344;SDS011;15375;48.540;9.268;2022-07-05T08:38:05;6.67;;;2.47;;
1344;SDS011;15375;48.540;9.268;2022-07-05T08:40:30;3.53;;;2.97;;
1344;SDS011;15375;48.540;9.268;2022-07-05T08:43:02;2.53;;;2.43;;
1344;SDS011;15375;48.540;9.268;2022-07-05T08:45:31;3.23;;;2.93;;
1344;SDS011;15375;48.540;9.268;2022-07-05T08:47:57;2.60;;;2.50;;
1344;SDS011;15375;48.540;9.268;2022-07-05T08:50:26;2.97;;;2.77;;
1344;SDS011;15375;48.540;9.268;2022-07-05T08:52:52;5.50;;;3.07;;
1344;SDS011;15375;48.540;9.268;2022-07-05T08:55:18;3.00;;;2.80;;
1344;SDS011;15375;48.540;9.268;2022-07-05T08:57:44;3.07;;;2.77;;
1344;SDS011;15375;48.540;9.268;2022-07-05T09:00:09;2.80;;;2.60;;
1344;SDS011;15375;48.540;9.268;2022-07-05T09:02:35;2.50;;;2.30;;
1344;SDS011;15375;48.540;9.268;2022-07-05T09:05:01;5.07;;;2.90;;
1344;SDS011;15375;48.540;9.268;2022-07-05T09:07:27;2.60;;;2.40;;
1344;SDS011;15375;48.540;9.268;2022-07-05T09:09:57;2.60;;;2.40;;
1344;SDS011;15375;48.540;9.268;2022-07-05T09:12:26;2.60;;;2.40;;
1344;SDS011;15375;48.540;9.268;2022-07-05T09:14:52;3.20;;;3.00;;
1344;SDS011;15375;48.540;9.268;2022-07-05T09:17:19;3.93;;;2.40;;
1344;SDS011;15375;48.540;9.268;2022-07-05T09:19:50;3.20;;;2.90;;
1344;SDS011;15375;48.540;9.268;2022-07-05T09:22:41;3.80;;;2.73;;
1344;SDS011;15375;48.540;9.268;2022-07-05T09:27:47;5.37;;;3.07;;
1344;SDS011;15375;48.540;9.268;2022-07-05T09:33:07;4.70;;;3.00;;
1344;SDS011;15375;48.540;9.268;2022-07-05T09:35:37;2.57;;;2.47;;
1344;SDS011;15375;48.540;9.268;2022-07-05T09:38:17;2.57;;;2.37;;
1344;SDS011;15375;48.540;9.268;2022-07-05T09:43:17;3.00;;;2.70;;
1344;SDS011;15375;48.540;9.268;2022-07-05T09:46:00;4.00;;;3.20;;
1344;SDS011;15375;48.540;9.268;2022-07-05T09:48:28;3.33;;;3.03;;
1344;SDS011;15375;48.540;9.268;2022-07-05T09:51:07;2.50;;;2.30;;
1344;SDS011;15375;48.540;9.268;2022-07-05T09:53:45;3.23;;;2.80;;
1344;SDS011;15375;48.540;9.268;2022-07-05T09:56:10;3.10;;;2.83;;
1344;SDS011;15375;48.540;9.268;2022-07-05T09:58:36;3.13;;;2.60;;
1344;SDS011;15375;48.540;9.268;2022-07-05T10:01:05;2.40;;;2.20;;
1344;SDS011;15375;48.540;9.268;2022-07-05T10:03:51;3.97;;;2.53;;
1344;SDS011;15375;48.540;9.268;2022-07-05T10:06:22;3.10;;;2.63;;
1344;SDS011;15375;48.540;9.268;2022-07-05T10:08:48;2.10;;;2.00;;
1344;SDS011;15375;48.540;9.268;2022-07-05T10:11:17;2.90;;;2.70;;
1344;SDS011;15375;48.540;9.268;2022-07-05T10:13:44;2.60;;;2.40;;
1344;SDS011;15375;48.540;9.268;2022-07-05T10:16:14;2.20;;;2.10;;
1344;SDS011;15375;48.540;9.268;2022-07-05T10:18:40;2.50;;;2.30;;
1344;SDS011;15375;48.540;9.268;2022-07-05T10:21:07;2.70;;;2.33;;
1344;SDS011;15375;48.540;9.268;2022-07-05T10:23:37;3.83;;;2.20;;
1344;SDS011;15375;48.540;9.268;2022-07-05T10:26:04;2.30;;;2.13;;
1344;SDS011;15375;48.540;9.268;2022-07-05T10:28:31;3.00;;;2.60;;
1344;SDS011;15375;48.540;9.268;2022-07-05T10:30:57;2.20;;;1.83;;
1344;SDS011;15375;48.540;9.268;2022-07-05T10:33:24;3.30;;;2.60;;
1344;SDS011;15375;48.540;9.268;2022-07-05T10:35:52;2.33;;;2.13;;
1344;SDS011;15375;48.540;9.268;2022-07-05T10:38:18;1.97;;;1.83;;
1344;SDS011;15375;48.540;9.268;2022-07-05T10:40:50;3.00;;;2.10;;
1344;SDS011;15375;48.540;9.268;2022-07-05T10:43:21;4.13;;;2.10;;
1344;SDS011;15375;48.540;9.268;2022-07-05T10:45:48;2.60;;;2.40;;
1344;SDS011;15375;48.540;9.268;2022-07-05T10:48:22;2.10;;;1.93;;
1344;SDS011;15375;48.540;9.268;2022-07-05T10:50:55;2.57;;;2.00;;
1344;SDS011;15375;48.540;9.268;2022-07-05T10:53:23;2.07;;;1.87;;
1344;SDS011;15375;48.540;9.268;2022-07-05T10:55:51;4.07;;;1.93;;
1344;SDS011;15375;48.540;9.268;2022-07-05T11:03:37;2.47;;;2.30;;
1344;SDS011;15375;48.540;9.268;2022-07-05T11:06:07;2.00;;;1.90;;
1344;SDS011;15375;48.540;9.268;2022-07-05T11:11:27;3.37;;;2.40;;
1344;SDS011;15375;48.540;9.268;2022-07-05T11:13:57;4.43;;;2.53;;
1344;SDS011;15375;48.540;9.268;2022-07-05T11:16:34;2.40;;;2.20;;
1344;SDS011;15375;48.540;9.268;2022-07-05T11:19:10;3.30;;;2.83;;
1344;SDS011;15375;48.540;9.268;2022-07-05T11:21:38;2.20;;;2.10;;
1344;SDS011;15375;48.540;9.268;2022-07-05T11:24:19;3.30;;;2.43;;
1344;SDS011;15375;48.540;9.268;2022-07-05T11:26:47;4.20;;;2.30;;
1344;SDS011;15375;48.540;9.268;2022-07-05T11:32:08;2.50;;;2.30;;
1344;SDS011;15375;48.540;9.268;2022-07-05T11:34:37;2.90;;;2.10;;
1344;SDS011;15375;48.540;9.268;2022-07-05T11:42:37;2.60;;;2.40;;
1344;SDS011;15375;48.540;9.268;2022-07-05T11:45:10;3.80;;;2.10;;
1344;SDS011;15375;48.540;9.268;2022-07-05T11:47:35;2.60;;;2.20;;
1344;SDS011;15375;48.540;9.268;2022-07-05T11:50:01;1.80;;;1.70;;
1344;SDS011;15375;48.540;9.268;2022-07-05T11:52:30;2.43;;;2.00;;
1344;SDS011;15375;48.540;9.268;2022-07-05T11:54:58;2.10;;;2.00;;
1344;SDS011;15375;48.540;9.268;2022-07-05T11:57:24;3.30;;;1.90;;
1344;SDS011;15375;48.540;9.268;2022-07-05T11:59:50;3.47;;;2.00;;
1344;SDS011;15375;48.540;9.268;2022-07-05T12:02:16;2.50;;;2.00;;
1344;SDS011;15375;48.540;9.268;2022-07-05T12:04:49;2.50;;;2.27;;
1344;SDS011;15375;48.540;9.268;2022-07-05T12:07:25;2.73;;;2.50;;
1344;SDS011;15375;48.540;9.268;2022-07-05T12:09:52;4.73;;;2.37;;
1344;SDS011;15375;48.540;9.268;2022-07-05T12:12:36;2.43;;;1.80;;
1344;SDS011;15375;48.540;9.268;2022-07-05T12:15:17;1.80;;;1.70;;
1344;SDS011;15375;48.540;9.268;2022-07-05T12:17:45;2.13;;;1.90;;
1344;SDS011;15375;48.540;9.268;2022-07-05T12:20:14;2.10;;;1.63;;
1344;SDS011;15375;48.540;9.268;2022-07-05T12:22:45;2.03;;;1.87;;
1344;SDS011;15375;48.540;9.268;2022-07-05T12:25:12;3.00;;;2.03;;
1344;SDS011;15375;48.540;9.268;2022-07-05T12:27:42;3.80;;;2.27;;
1344;SDS011;15375;48.540;9.268;2022-07-05T12:30:09;1.60;;;1.50;;
1344;SDS011;15375;48.540;9.268;2022-07-05T12:35:28;3.93;;;2.10;;
1344;SDS011;15375;48.540;9.268;2022-07-05T12:38:08;3.10;;;2.37;;
1344;SDS011;15375;48.540;9.268;2022-07-05T12:40:36;3.03;;;1.63;;
1344;SDS011;15375;48.540;9.268;2022-07-05T12:43:10;1.83;;;1.70;;
1344;SDS011;15375;48.540;9.268;2022-07-05T12:45:37;1.77;;;1.67;;
1344;SDS011;15375;48.540;9.268;2022-07-05T12:48:04;2.17;;;2.07;;
1344;SDS011;15375;48.540;9.268;2022-07-05T12:50:45;4.00;;;2.67;;
1344;SDS011;15375;48.540;9.268;2022-07-05T12:53:11;4.63;;;2.37;;
1344;SDS011;15375;48.540;9.268;2022-07-05T12:56:05;2.10;;;2.00;;
1344;SDS011;15375;48.540;9.268;2022-07-05T12:58:58;4.70;;;2.27;;
1344;SDS011;15375;48.540;9.268;2022-07-05T13:01:26;2.20;;;2.10;;
1344;SDS011;15375;48.540;9.268;2022-07-05T13:03:55;2.03;;;1.60;;
1344;SDS011;15375;48.540;9.268;2022-07-05T13:09:37;2.10;;;1.90;;
1344;SDS011;15375;48.540;9.268;2022-07-05T13:12:09;2.87;;;1.90;;
1344;SDS011;15375;48.540;9.268;2022-07-05T13:14:48;3.37;;;2.30;;
1344;SDS011;15375;48.540;9.268;2022-07-05T13:17:15;2.97;;;1.80;;
1344;SDS011;15375;48.540;9.268;2022-07-05T13:19:43;1.80;;;1.70;;
1344;SDS011;15375;48.540;9.268;2022-07-05T13:22:10;2.33;;;1.87;;
1344;SDS011;15375;48.540;9.268;2022-07-05T13:24:36;2.80;;;1.83;;
1344;SDS011;15375;48.540;9.268;2022-07-05T13:27:02;3.00;;;1.83;;
1344;SDS011;15375;48.540;9.268;2022-07-05T13:29:28;5.00;;;1.77;;
1344;SDS011;15375;48.540;9.268;2022-07-05T13:31:54;2.00;;;1.83;;
1344;SDS011;15375;48.540;9.268;2022-07-05T13:34:19;3.87;;;2.10;;
1344;SDS011;15375;48.540;9.268;2022-07-05T13:36:48;2.17;;;1.97;;
1344;SDS011;15375;48.540;9.268;2022-07-05T13:39:14;3.60;;;2.00;;
1344;SDS011;15375;48.540;9.268;2022-07-05T13:41:40;2.43;;;2.23;;
1344;SDS011;15375;48.540;9.268;2022-07-05T13:44:05;4.40;;;2.30;;
1344;SDS011;15375;48.540;9.268;2022-07-05T13:46:30;2.10;;;2.00;;
1344;SDS011;15375;48.540;9.268;2022-07-05T13:48:56;2.10;;;2.00;;
1344;SDS011;15375;48.540;9.268;2022-07-05T13:51:21;2.23;;;2.03;;
1344;SDS011;15375;48.540;9.268;2022-07-05T13:53:47;2.50;;;2.00;;
1344;SDS011;15375;48.540;9.268;2022-07-05T13:56:12;2.70;;;1.93;;
1344;SDS011;15375;48.540;9.268;2022-07-05T13:58:37;2.60;;;1.67;;
1344;SDS011;15375;48.540;9.268;2022-07-05T14:01:03;2.77;;;2.20;;
1344;SDS011;15375;48.540;9.268;2022-07-05T14:03:29;2.20;;;2.00;;
1344;SDS011;15375;48.540;9.268;2022-07-05T14:05:55;2.27;;;2.07;;
1344;SDS011;15375;48.540;9.268;2022-07-05T14:08:20;1.87;;;1.77;;
1344;SDS011;15375;48.540;9.268;2022-07-05T14:10:53;2.37;;;2.17;;
1344;SDS011;15375;48.540;9.268;2022-07-05T14:13:23;2.53;;;1.70;;
1344;SDS011;15375;48.540;9.268;2022-07-05T14:15:50;2.33;;;1.87;;
1344;SDS011;15375;48.540;9.268;2022-07-05T14:18:16;3.77;;;2.00;;
1344;SDS011;15375;48.540;9.268;2022-07-05T14:20:43;2.20;;;1.93;;
1344;SDS011;15375;48.540;9.268;2022-07-05T14:23:10;1.97;;;1.80;;
1344;SDS011;15375;48.540;9.268;2022-07-05T14:25:37;4.73;;;2.10;;
1344;SDS011;15375;48.540;9.268;2022-07-05T14:28:02;2.20;;;2.00;;
1344;SDS011;15375;48.540;9.268;2022-07-05T14:30:33;2.50;;;1.80;;
1344;SDS011;15375;48.540;9.268;2022-07-05T14:32:59;2.27;;;2.07;;
1344;SDS011;15375;48.540;9.268;2022-07-05T14:35:24;3.57;;;2.37;;
1344;SDS011;15375;48.540;9.268;2022-07-05T14:37:50;2.30;;;2.10;;
1344;SDS011;15375;48.540;9.268;2022-07-05T14:40:15;2.40;;;2.20;;
1344;SDS011;15375;48.540;9.268;2022-07-05T14:42:41;2.50;;;2.30;;
1344;SDS011;15375;48.540;9.268;2022-07-05T14:45:06;2.47;;;2.13;;
1344;SDS011;15375;48.540;9.268;2022-07-05T14:47:32;3.43;;;2.30;;
1344;SDS011;15375;48.540;9.268;2022-07-05T14:49:57;2.97;;;2.00;;
1344;SDS011;15375;48.540;9.268;2022-07-05T14:52:22;2.70;;;2.20;;
1344;SDS011;15375;48.540;9.268;2022-07-05T14:54:48;2.00;;;1.90;;
1344;SDS011;15375;48.540;9.268;2022-07-05T14:57:14;2.23;;;2.13;;
1344;SDS011;15375;48.540;9.268;2022-07-05T14:59:39;2.47;;;2.27;;
1344;SDS011;15375;48.540;9.268;2022-07-05T15:02:06;2.53;;;2.03;;
1344;SDS011;15375;48.540;9.268;2022-07-05T15:04:32;2.10;;;2.00;;
1344;SDS011;15375;48.540;9.268;2022-07-05T15:06:57;2.37;;;2.00;;
1344;SDS011;15375;48.540;9.268;2022-07-05T15:09:23;2.30;;;2.20;;
1344;SDS011;15375;48.540;9.268;2022-07-05T15:11:48;6.00;;;1.70;;
1344;SDS011;15375;48.540;9.268;2022-07-05T15:14:14;2.63;;;2.40;;
1344;SDS011;15375;48.540;9.268;2022-07-05T15:16:39;2.47;;;2.27;;
1344;SDS011;15375;48.540;9.268;2022-07-05T15:19:05;3.07;;;2.60;;
1344;SDS011;15375;48.540;9.268;2022-07-05T15:21:32;2.07;;;1.90;;
1344;SDS011;15375;48.540;9.268;2022-07-05T15:23:57;2.87;;;2.43;;
1344;SDS011;15375;48.540;9.268;2022-07-05T15:26:23;3.10;;;2.10;;
1344;SDS011;15375;48.540;9.268;2022-07-05T15:28:49;3.90;;;2.73;;
1344;SDS011;15375;48.540;9.268;2022-07-05T15:31:14;3.00;;;2.30;;